Time;durP1;ratioP1;P1;durP2;ratioP2;P2;SDS_P1;SDS_P2;PMS_P1;PMS_P2;Temp;Humidity;BMP_temperature;BMP_pressure;BME280_temperature;BME280_humidity;BME280_pressure;Samples;Min_cycle;Max_cycle;Signal;HPM_P1;HPM_P2
2022/09/26 00:01:41;;;;;;;10.50;5.40;;;;;;;12.39;69.16;98337.27;106030;1276;111765;-63
2022/09/26 00:04:22;;;;;;;10.40;5.60;;;;;;;12.39;69.22;98330.54;106055;1276;97851;-64
2022/09/26 00:06:57;;;;;;;10.40;5.60;;;;;;;12.39;69.09;98332.13;105963;1276;108383;-62
2022/09/26 00:09:27;;;;;;;11.00;6.10;;;;;;;12.37;69.33;98327.64;106002;1276;97857;-62
2022/09/26 00:11:56;;;;;;;10.50;5.90;;;;;;;12.38;69.26;98326.19;106032;1276;97860;-63
2022/09/26 00:14:28;;;;;;;9.80;5.30;;;;;;;12.38;69.38;98323.46;105993;1276;112147;-64
2022/09/26 00:16:56;;;;;;;9.60;5.40;;;;;;;12.40;69.43;98316.95;106105;1276;97991;-63
2022/09/26 00:19:25;;;;;;;9.30;5.40;;;;;;;12.41;69.64;98315.77;106022;1276;107434;-63
2022/09/26 00:21:54;;;;;;;10.50;5.60;;;;;;;12.42;69.51;98313.55;106007;1276;98002;-64
2022/09/26 00:24:23;;;;;;;8.30;5.00;;;;;;;12.42;69.59;98309.27;106035;1276;97965;-66
2022/09/26 00:26:52;;;;;;;10.20;5.30;;;;;;;12.42;69.57;98305.91;106026;1276;112051;-64
2022/09/26 00:29:19;;;;;;;7.90;4.90;;;;;;;12.42;69.66;98302.63;105987;1276;96983;-64
2022/09/26 00:31:48;;;;;;;10.50;5.90;;;;;;;12.44;69.78;98304.64;105997;1276;107299;-63
2022/09/26 00:34:19;;;;;;;8.20;4.90;;;;;;;12.46;69.68;98304.11;106024;1276;97078;-61
2022/09/26 00:36:47;;;;;;;11.10;5.40;;;;;;;12.46;69.64;98303.21;106013;1276;97867;-61
2022/09/26 00:39:16;;;;;;;8.40;5.20;;;;;;;12.45;69.75;98300.45;105969;1276;112122;-63
2022/09/26 00:41:44;;;;;;;10.40;5.40;;;;;;;12.46;69.90;98299.84;106026;1276;97897;-64
2022/09/26 00:44:53;;;;;;;9.30;5.40;;;;;;;12.46;69.84;98298.05;106022;1276;108313;-64
2022/09/26 00:48:00;;;;;;;9.30;5.80;;;;;;;12.45;69.83;98295.27;105780;1281;98098;-63
2022/09/26 00:50:34;;;;;;;10.40;6.50;;;;;;;12.45;70.03;98295.06;105998;1276;97873;-64
2022/09/26 00:53:11;;;;;;;12.50;6.70;;;;;;;12.47;70.08;98293.48;105932;1276;112070;-64
2022/09/26 00:55:49;;;;;;;11.10;6.10;;;;;;;12.48;70.07;98294.84;105935;1276;97942;-63
2022/09/26 00:58:27;;;;;;;11.70;6.50;;;;;;;12.48;70.06;98292.48;105976;1276;108377;-65
2022/09/26 01:00:59;;;;;;;13.60;7.10;;;;;;;12.49;70.20;98292.92;106037;1275;95209;-66
2022/09/26 01:03:31;;;;;;;12.00;6.90;;;;;;;12.51;70.15;98292.03;105980;1276;95185;-64
2022/09/26 01:06:00;;;;;;;12.50;6.90;;;;;;;12.53;70.06;98292.75;105969;1276;111093;-63
2022/09/26 01:08:35;;;;;;;13.00;6.90;;;;;;;12.53;70.10;98294.01;105985;1276;97950;-63
2022/09/26 01:11:05;;;;;;;13.90;7.70;;;;;;;12.53;70.25;98293.45;105926;1276;106435;-63
2022/09/26 01:13:36;;;;;;;14.00;7.40;;;;;;;12.54;70.26;98292.16;106968;1276;97988;-63
2022/09/26 01:16:04;;;;;;;14.10;7.70;;;;;;;12.54;70.34;98292.47;106003;1276;95278;-64
2022/09/26 01:18:33;;;;;;;14.80;7.60;;;;;;;12.56;70.23;98289.84;105966;1276;111958;-63
2022/09/26 01:21:27;;;;;;;17.70;8.20;;;;;;;12.54;70.20;98283.04;106094;1276;97888;-65
2022/09/26 01:24:17;;;;;;;17.80;9.00;;;;;;;12.54;70.42;98279.18;105931;1276;108399;-62
2022/09/26 01:27:04;;;;;;;17.50;8.70;;;;;;;12.54;70.41;98277.73;105974;1276;97879;-63
2022/09/26 01:29:49;;;;;;;15.60;8.30;;;;;;;12.56;70.53;98279.35;105976;1276;97992;-61
2022/09/26 01:32:47;;;;;;;15.90;7.90;;;;;;;12.55;70.54;98281.38;106011;1276;112085;-61
2022/09/26 01:35:38;;;;;;;16.00;8.70;;;;;;;12.56;70.54;98273.80;106037;1276;96588;-64
2022/09/26 01:38:23;;;;;;;16.60;9.00;;;;;;;12.57;70.57;98267.81;106016;1276;108282;-63
2022/09/26 01:41:31;;;;;;;16.20;8.70;;;;;;;12.57;70.62;98270.50;106008;1276;96992;-63
2022/09/26 01:44:31;;;;;;;16.70;8.40;;;;;;;12.57;70.54;98266.41;106032;1276;95286;-63
2022/09/26 01:47:12;;;;;;;17.40;9.40;;;;;;;12.57;70.65;98264.09;106013;1276;112120;-63
2022/09/26 01:49:40;;;;;;;17.80;9.70;;;;;;;12.58;70.64;98261.86;106074;1276;97829;-64
2022/09/26 01:52:08;;;;;;;18.40;9.30;;;;;;;12.58;70.62;98261.02;106043;1276;107353;-62
2022/09/26 01:54:41;;;;;;;19.30;10.30;;;;;;;12.57;70.65;98257.52;105967;1276;97968;-63
2022/09/26 01:57:16;;;;;;;17.50;9.10;;;;;;;12.56;70.57;98254.39;106099;1276;97981;-63
2022/09/26 01:59:56;;;;;;;17.80;9.40;;;;;;;12.55;70.59;98250.30;106040;1276;111486;-64
2022/09/26 02:02:30;;;;;;;16.60;9.00;;;;;;;12.54;70.71;98251.23;105895;1276;97945;-63
2022/09/26 02:05:06;;;;;;;18.40;9.70;;;;;;;12.55;70.78;98243.52;105969;1276;108496;-63
2022/09/26 02:07:42;;;;;;;16.40;9.20;;;;;;;12.56;70.83;98243.58;105957;1276;96993;-64
2022/09/26 02:10:21;;;;;;;18.10;10.20;;;;;;;12.54;70.75;98241.59;106020;1276;97879;-65
2022/09/26 02:12:59;;;;;;;17.00;9.30;;;;;;;12.54;70.88;98247.02;105909;1276;112034;-65
2022/09/26 02:15:32;;;;;;;18.40;10.00;;;;;;;12.54;70.79;98239.90;105972;1276;95286;-64
2022/09/26 02:18:12;;;;;;;17.20;9.70;;;;;;;12.54;71.04;98239.48;105953;1276;106706;-63
2022/09/26 02:20:50;;;;;;;18.60;10.00;;;;;;;12.55;71.11;98239.39;105886;1276;95317;-65
2022/09/26 02:23:18;;;;;;;17.90;9.90;;;;;;;12.56;71.03;98237.74;105982;1276;97930;-64
2022/09/26 02:25:46;;;;;;;18.20;10.10;;;;;;;12.55;71.03;98240.13;105993;1276;112051;-63
2022/09/26 02:28:16;;;;;;;18.20;10.00;;;;;;;12.54;71.05;98240.41;106012;1276;96418;-65
2022/09/26 02:30:49;;;;;;;18.70;10.70;;;;;;;12.52;70.86;98239.85;105964;1276;108357;-63
2022/09/26 02:33:17;;;;;;;19.00;10.30;;;;;;;12.47;70.88;98239.92;105951;1276;97969;-62
2022/09/26 02:35:53;;;;;;;19.30;10.70;;;;;;;12.43;70.87;98244.59;105963;1277;98699;-63
2022/09/26 02:38:31;;;;;;;19.60;11.00;;;;;;;12.36;70.74;98238.80;106000;1276;112007;-63
2022/09/26 02:41:03;;;;;;;18.50;10.70;;;;;;;12.31;70.91;98235.61;106058;1276;97967;-65
2022/09/26 02:43:47;;;;;;;17.80;10.30;;;;;;;12.27;71.03;98236.61;106040;1276;107806;-63
2022/09/26 02:46:40;;;;;;;19.20;11.20;;;;;;;12.26;71.06;98233.93;105990;1276;97897;-63
2022/09/26 02:49:34;;;;;;;18.00;10.10;;;;;;;12.24;71.25;98232.32;106022;1276;97872;-64
2022/09/26 02:52:20;;;;;;;18.90;10.50;;;;;;;12.24;71.44;98232.84;105953;1276;111968;-63
2022/09/26 02:55:15;;;;;;;20.00;10.90;;;;;;;12.27;71.49;98228.65;105945;1279;97990;-65
2022/09/26 02:58:02;;;;;;;17.80;10.30;;;;;;;12.30;71.47;98226.98;106082;1276;107854;-65
2022/09/26 03:00:52;;;;;;;20.60;11.10;;;;;;;12.29;71.39;98218.71;105939;1276;97907;-61
2022/09/26 03:03:42;;;;;;;20.70;11.50;;;;;;;12.30;71.43;98219.70;105998;1276;97914;-65
2022/09/26 03:06:16;;;;;;;20.00;11.10;;;;;;;12.28;71.35;98226.60;105929;1276;111936;-64
2022/09/26 03:08:48;;;;;;;20.10;12.00;;;;;;;12.28;71.36;98224.86;106027;1276;95191;-66
2022/09/26 03:11:22;;;;;;;19.40;11.10;;;;;;;12.30;71.66;98219.36;106030;1276;107438;-63
2022/09/26 03:13:53;;;;;;;18.80;10.80;;;;;;;12.31;71.64;98214.95;105999;1276;97959;-65
2022/09/26 03:16:26;;;;;;;20.10;11.10;;;;;;;12.32;71.63;98210.23;106006;1276;98806;-66
2022/09/26 03:19:03;;;;;;;21.50;11.60;;;;;;;12.32;71.51;98210.56;106033;1276;111455;-64
2022/09/26 03:21:33;;;;;;;19.80;11.20;;;;;;;12.33;71.65;98210.38;106013;1276;97890;-63
2022/09/26 03:24:05;;;;;;;19.10;11.30;;;;;;;12.34;71.69;98205.13;105977;1276;108377;-64
2022/09/26 03:26:35;;;;;;;20.60;11.30;;;;;;;12.33;71.71;98201.24;106016;1276;95302;-65
2022/09/26 03:29:04;;;;;;;19.20;11.30;;;;;;;12.33;71.77;98196.08;106081;1276;97858;-65
2022/09/26 03:31:33;;;;;;;20.00;11.00;;;;;;;12.33;71.70;98195.58;106024;1276;112623;-68
2022/09/26 03:34:02;;;;;;;19.90;11.10;;;;;;;12.31;71.67;98191.69;106080;1276;97860;-66
2022/09/26 03:36:31;;;;;;;19.00;11.40;;;;;;;12.28;71.69;98192.17;105976;1276;108299;-65
2022/09/26 03:38:59;;;;;;;20.10;11.30;;;;;;;12.26;71.69;98188.73;105843;1276;98109;-65
2022/09/26 03:41:28;;;;;;;21.20;11.80;;;;;;;12.26;71.77;98186.84;106012;1276;97900;-65
2022/09/26 03:43:56;;;;;;;20.60;11.80;;;;;;;12.26;71.74;98183.66;105983;1276;112066;-63
2022/09/26 03:46:24;;;;;;;21.70;11.90;;;;;;;12.25;71.77;98182.29;106034;1276;98019;-66
2022/09/26 03:48:52;;;;;;;20.30;11.70;;;;;;;12.23;71.83;98176.95;106012;1276;108400;-66
2022/09/26 03:51:21;;;;;;;20.50;12.00;;;;;;;12.16;71.51;98171.04;106017;1276;97984;-65
2022/09/26 03:53:49;;;;;;;21.10;11.70;;;;;;;12.06;71.54;98173.73;106106;1276;196720;-63
2022/09/26 03:56:20;;;;;;;20.80;12.30;;;;;;;11.94;71.39;98177.77;106019;1276;111552;-63
2022/09/26 03:58:49;;;;;;;22.10;12.70;;;;;;;11.83;71.40;98174.87;105980;1276;96307;-65
2022/09/26 04:01:21;;;;;;;23.20;13.40;;;;;;;11.74;71.48;98168.27;105907;1278;108795;-65
2022/09/26 04:03:49;;;;;;;21.10;12.70;;;;;;;11.69;71.65;98165.55;105953;1276;97992;-65
2022/09/26 04:06:20;;;;;;;20.60;12.10;;;;;;;11.66;71.72;98160.13;105985;1276;97867;-67
2022/09/26 04:08:52;;;;;;;21.30;11.90;;;;;;;11.64;71.85;98162.77;105976;1276;112114;-63
2022/09/26 04:11:23;;;;;;;21.20;12.20;;;;;;;11.63;71.78;98166.05;105917;1276;97975;-62
2022/09/26 04:13:52;;;;;;;22.30;12.80;;;;;;;11.63;71.82;98170.86;105958;1276;108668;-63
2022/09/26 04:16:23;;;;;;;20.20;11.90;;;;;;;11.62;71.93;98171.46;105970;1276;97964;-63
2022/09/26 04:18:57;;;;;;;21.80;13.10;;;;;;;11.62;71.89;98170.61;105981;1276;96609;-64
2022/09/26 04:21:25;;;;;;;22.70;12.70;;;;;;;11.64;72.11;98163.88;105989;1276;112060;-64
2022/09/26 04:23:56;;;;;;;21.10;11.80;;;;;;;11.65;72.08;98162.88;105980;1276;97914;-65
2022/09/26 04:26:27;;;;;;;21.50;11.70;;;;;;;11.67;72.05;98160.02;105948;1276;107176;-64
2022/09/26 04:28:57;;;;;;;18.80;10.40;;;;;;;11.69;72.01;98157.71;106014;1276;97953;-64
2022/09/26 04:31:27;;;;;;;19.00;10.50;;;;;;;11.70;72.01;98156.88;105886;1277;96366;-63
2022/09/26 04:33:57;;;;;;;19.60;10.70;;;;;;;11.72;72.22;98156.52;105918;1277;111964;-64
2022/09/26 04:36:25;;;;;;;20.70;11.80;;;;;;;11.73;71.98;98157.85;105977;1276;97912;-65
2022/09/26 04:38:53;;;;;;;19.00;10.50;;;;;;;11.75;72.04;98154.48;105977;1276;108353;-65
2022/09/26 04:41:22;;;;;;;20.50;11.20;;;;;;;11.77;72.06;98154.15;105890;1279;97957;-64
2022/09/26 04:43:53;;;;;;;20.30;10.90;;;;;;;11.73;71.82;98150.26;105808;1278;97867;-63
2022/09/26 04:46:24;;;;;;;20.50;11.50;;;;;;;11.68;72.07;98151.57;105804;1278;112002;-64
2022/09/26 04:49:01;;;;;;;21.40;12.10;;;;;;;11.64;71.95;98159.04;105779;1278;98454;-61
2022/09/26 04:51:31;;;;;;;21.30;11.90;;;;;;;11.61;71.98;98170.67;105759;1278;107768;-63
2022/09/26 04:53:59;;;;;;;20.20;11.40;;;;;;;11.58;72.09;98165.60;105747;1277;98004;-64
2022/09/26 04:56:30;;;;;;;20.90;12.30;;;;;;;11.56;72.10;98159.63;106258;1278;97872;-63
2022/09/26 04:59:01;;;;;;;21.90;12.80;;;;;;;11.54;72.11;98156.61;106043;1276;112197;-63
2022/09/26 05:01:30;;;;;;;21.20;12.50;;;;;;;11.52;72.15;98153.38;106028;1276;95352;-64
2022/09/26 05:04:00;;;;;;;20.70;12.00;;;;;;;11.52;72.23;98156.21;106033;1276;109013;-65
2022/09/26 05:06:28;;;;;;;23.10;13.30;;;;;;;11.55;72.34;98162.35;106012;1276;97899;-63
2022/09/26 05:08:57;;;;;;;21.30;11.70;;;;;;;11.58;72.37;98162.32;105982;1276;97852;-63
2022/09/26 05:11:26;;;;;;;21.70;11.80;;;;;;;11.59;72.35;98160.55;106346;1276;111955;-64
2022/09/26 05:13:56;;;;;;;20.50;11.80;;;;;;;11.62;72.56;98158.50;107802;1276;95685;-64
2022/09/26 05:16:27;;;;;;;20.90;12.10;;;;;;;11.65;72.29;98158.23;107283;1276;107774;-63
2022/09/26 05:18:57;;;;;;;20.80;11.20;;;;;;;11.65;72.21;98150.63;105954;1276;97845;-63
2022/09/26 05:21:26;;;;;;;20.10;11.00;;;;;;;11.67;72.39;98151.54;105970;1276;97892;-65
2022/09/26 05:26:47;;;;;;;17.80;9.80;;;;;;;11.69;72.40;98155.42;105976;1276;97869;-63
2022/09/26 05:29:16;;;;;;;;;;;;;;;11.71;72.47;98156.07;106028;1276;107788;-65
2022/09/26 05:31:47;;;;;;;18.40;9.60;;;;;;;11.71;72.47;98153.98;106088;1276;97993;-63
2022/09/26 05:34:16;;;;;;;19.90;10.00;;;;;;;11.73;72.51;98150.98;106097;1276;97863;-64
2022/09/26 05:36:50;;;;;;;18.90;10.00;;;;;;;11.74;72.60;98147.84;105984;1276;111984;-65
2022/09/26 05:42:14;;;;;;;17.50;9.80;;;;;;;11.82;72.70;98142.21;105828;1277;108594;-63
2022/09/26 05:44:44;;;;;;;19.20;9.10;;;;;;;11.83;72.42;98142.59;105828;1278;97885;-64
2022/09/26 05:47:12;;;;;;;19.00;9.40;;;;;;;11.83;72.50;98138.29;106040;1276;97850;-64
2022/09/26 05:49:41;;;;;;;19.70;11.30;;;;;;;11.83;72.56;98148.42;106018;1276;111599;-66
2022/09/26 05:52:11;;;;;;;21.30;11.00;;;;;;;11.83;72.62;98148.14;105906;1278;95484;-66
2022/09/26 05:54:40;;;;;;;24.30;12.30;;;;;;;11.83;72.58;98139.89;105943;1276;110439;-65
2022/09/26 05:57:11;;;;;;;19.40;10.40;;;;;;;11.87;72.65;98130.52;105932;1276;98485;-64
2022/09/26 05:59:42;;;;;;;22.30;12.90;;;;;;;11.89;72.52;98125.46;105961;1276;97859;-63
2022/09/26 06:02:12;;;;;;;18.10;10.20;;;;;;;11.92;72.64;98124.73;105926;1276;110487;-63
2022/09/26 06:04:48;;;;;;;18.30;10.40;;;;;;;11.92;72.53;98124.91;106000;1276;97922;-64
2022/09/26 06:07:17;;;;;;;20.10;11.10;;;;;;;11.92;72.36;98119.96;105981;1277;108597;-63
2022/09/26 06:09:48;;;;;;;21.80;11.20;;;;;;;11.90;72.62;98116.52;105973;1276;98055;-64
2022/09/26 06:12:18;;;;;;;19.70;11.20;;;;;;;11.92;72.70;98113.35;105931;1278;97874;-64
2022/09/26 06:14:52;;;;;;;19.80;10.30;;;;;;;11.95;72.90;98109.36;106018;1276;112494;-64
2022/09/26 06:17:24;;;;;;;18.30;9.90;;;;;;;11.99;72.83;98117.15;106142;1263;97968;-64
2022/09/26 06:19:52;;;;;;;20.30;10.90;;;;;;;12.01;72.68;98129.03;105938;1274;108346;-63
2022/09/26 06:22:20;;;;;;;19.80;10.30;;;;;;;12.00;72.61;98136.61;105956;1274;97904;-65
2022/09/26 06:24:48;;;;;;;19.40;10.00;;;;;;;12.00;72.85;98135.52;105847;1276;97944;-65
2022/09/26 06:27:22;;;;;;;17.80;9.70;;;;;;;12.02;72.92;98140.68;105971;1274;111968;-65
2022/09/26 06:29:50;;;;;;;17.70;9.30;;;;;;;12.04;72.98;98144.20;105982;1274;98571;-64
2022/09/26 06:32:19;;;;;;;18.40;9.60;;;;;;;12.10;73.00;98148.17;105974;1274;108371;-63
2022/09/26 06:34:50;;;;;;;18.70;10.20;;;;;;;12.14;73.07;98146.51;105995;1274;97986;-63
2022/09/26 06:37:20;;;;;;;18.60;9.70;;;;;;;12.18;73.14;98144.54;106011;1274;97892;-64
2022/09/26 06:39:48;;;;;;;20.10;10.00;;;;;;;12.22;72.96;98143.84;106042;1274;111982;-64
2022/09/26 06:42:15;;;;;;;19.70;9.50;;;;;;;12.24;72.94;98141.00;106141;1274;96337;-64
2022/09/26 06:44:44;;;;;;;19.60;10.10;;;;;;;12.23;72.99;98134.34;106124;1274;108466;-63
2022/09/26 06:47:12;;;;;;;22.60;10.80;;;;;;;12.23;72.87;98127.91;106058;1274;95188;-64
2022/09/26 06:49:45;;;;;;;17.80;9.50;;;;;;;12.21;72.78;98129.01;106168;1274;97963;-64
2022/09/26 06:52:13;;;;;;;21.20;10.90;;;;;;;12.15;72.86;98125.44;106115;1274;112458;-63
2022/09/26 06:54:40;;;;;;;19.00;9.40;;;;;;;12.12;72.88;98128.36;106149;1274;96605;-65
2022/09/26 06:57:12;;;;;;;21.30;11.10;;;;;;;12.11;72.92;98129.34;106124;1274;108324;-64
2022/09/26 06:59:42;;;;;;;19.30;9.20;;;;;;;12.12;72.99;98130.86;105976;1274;97844;-64
2022/09/26 07:02:11;;;;;;;19.80;9.90;;;;;;;12.13;73.07;98130.41;105998;1274;97764;-63
2022/09/26 07:04:43;;;;;;;18.60;8.90;;;;;;;12.17;73.16;98128.86;105979;1274;112114;-63
2022/09/26 07:07:11;;;;;;;18.60;9.30;;;;;;;12.21;73.28;98126.79;105984;1274;97836;-63
2022/09/26 07:09:39;;;;;;;18.20;9.00;;;;;;;12.27;73.29;98127.55;105996;1274;108247;-64
2022/09/26 07:12:14;;;;;;;18.30;8.70;;;;;;;12.30;73.22;98126.56;105952;1274;97980;-64
2022/09/26 07:14:45;;;;;;;19.60;9.20;;;;;;;12.34;73.22;98124.36;106023;1274;97864;-65
2022/09/26 07:17:21;;;;;;;18.70;9.50;;;;;;;12.40;73.33;98119.34;105998;1273;111586;-65
2022/09/26 07:19:52;;;;;;;19.80;10.50;;;;;;;12.46;73.31;98119.98;106011;1274;97883;-64
2022/09/26 07:22:21;;;;;;;22.00;10.60;;;;;;;12.53;73.28;98125.97;105986;1274;108447;-64
2022/09/26 07:24:49;;;;;;;18.60;9.60;;;;;;;12.56;73.12;98123.69;105991;1274;97986;-63
2022/09/26 07:27:19;;;;;;;19.20;10.30;;;;;;;12.60;73.15;98124.09;105967;1274;97864;-65
2022/09/26 07:29:48;;;;;;;20.40;10.30;;;;;;;12.62;73.12;98118.83;106068;1274;111935;-63
2022/09/26 07:32:17;;;;;;;20.20;10.20;;;;;;;12.66;73.25;98119.72;106047;1276;97848;-65
2022/09/26 07:34:46;;;;;;;19.00;10.10;;;;;;;12.70;73.08;98124.01;106032;1276;108489;-64
2022/09/26 07:37:18;;;;;;;20.30;9.50;;;;;;;12.72;73.07;98120.97;106015;1274;95297;-64
2022/09/26 07:39:46;;;;;;;20.10;10.00;;;;;;;12.71;73.03;98116.39;105901;1274;97976;-64
2022/09/26 07:42:21;;;;;;;;;;;;;;;12.73;73.13;98118.40;106037;1274;109894;-65
2022/09/26 07:44:49;;;;;;;18.30;9.10;;;;;;;12.72;73.06;98116.72;105922;1274;97994;-65
2022/09/26 07:50:24;;;;;;;18.90;9.60;;;;;;;12.73;73.09;98125.83;105994;1274;98004;-65
2022/09/26 07:52:54;;;;;;;19.60;9.50;;;;;;;12.71;72.99;98121.02;106008;1275;97961;-66
2022/09/26 07:55:26;;;;;;;22.10;10.20;;;;;;;12.71;73.03;98118.70;106105;1274;111444;-64
2022/09/26 07:57:55;;;;;;;21.40;9.10;;;;;;;12.73;73.23;98113.17;106052;1275;97906;-65
2022/09/26 08:00:23;;;;;;;18.30;9.00;;;;;;;12.77;73.21;98111.92;106024;1274;107753;-66
2022/09/26 08:02:51;;;;;;;16.60;8.80;;;;;;;12.80;73.15;98108.45;105940;1274;95314;-64
2022/09/26 08:05:19;;;;;;;18.70;9.00;;;;;;;12.80;73.13;98110.52;106042;1274;97936;-65
2022/09/26 08:07:49;;;;;;;16.40;8.30;;;;;;;12.79;73.24;98109.21;106105;1274;112022;-65
2022/09/26 08:10:23;;;;;;;18.20;8.20;;;;;;;12.81;73.24;98103.02;106032;1274;97900;-65
2022/09/26 08:12:51;;;;;;;16.90;8.50;;;;;;;12.85;73.16;98103.19;105878;1275;106350;-65
2022/09/26 08:15:19;;;;;;;17.30;8.20;;;;;;;12.88;73.26;98099.46;105893;1274;97013;-64
2022/09/26 08:17:48;;;;;;;21.60;9.20;;;;;;;12.89;73.14;98095.60;106786;1274;97870;-65
2022/09/26 08:20:17;;;;;;;20.90;10.30;;;;;;;12.93;73.15;98101.68;106187;1274;111849;-66
2022/09/26 08:22:46;;;;;;;17.90;9.20;;;;;;;12.96;73.16;98104.05;106111;1275;96339;-64
2022/09/26 08:25:16;;;;;;;19.20;9.70;;;;;;;12.98;73.25;98104.08;105971;1274;107598;-67
2022/09/26 08:27:45;;;;;;;15.20;8.20;;;;;;;13.01;73.26;98097.04;105987;1274;98016;-64
2022/09/26 08:30:15;;;;;;;18.70;9.10;;;;;;;13.03;73.18;98088.11;106019;1274;97876;-63
2022/09/26 08:32:57;;;;;;;17.60;8.70;;;;;;;13.07;73.33;98090.81;105988;1275;112573;-63
2022/09/26 08:35:35;;;;;;;16.90;8.40;;;;;;;13.12;73.19;98092.02;106090;1274;97896;-63
2022/09/26 08:38:08;;;;;;;16.60;8.50;;;;;;;13.13;73.34;98094.73;106014;1274;108489;-64
2022/09/26 08:41:05;;;;;;;17.50;7.40;;;;;;;13.15;73.31;98096.52;105976;1274;97897;-63
2022/09/26 08:43:54;;;;;;;15.00;7.80;;;;;;;13.13;73.26;98093.91;106107;1275;97989;-64
2022/09/26 08:46:42;;;;;;;16.30;7.70;;;;;;;13.13;73.35;98094.75;106125;1275;111951;-63
2022/09/26 08:49:39;;;;;;;16.30;7.40;;;;;;;13.16;73.39;98091.61;106078;1275;98584;-64
2022/09/26 08:52:31;;;;;;;15.40;7.30;;;;;;;13.18;73.28;98093.00;105961;1274;108452;-65
2022/09/26 08:55:35;;;;;;;14.50;6.30;;;;;;;13.16;73.22;98091.23;106089;1274;98012;-64
2022/09/26 08:58:38;;;;;;;14.00;6.60;;;;;;;13.14;73.36;98092.85;106058;1274;97844;-63
2022/09/26 09:01:27;;;;;;;15.90;7.30;;;;;;;13.14;73.31;98094.99;105990;1274;112697;-64
2022/09/26 09:04:04;;;;;;;14.90;7.40;;;;;;;13.14;73.35;98091.77;106089;1274;97924;-63
2022/09/26 09:06:36;;;;;;;12.60;6.60;;;;;;;13.18;73.40;98097.43;106140;1274;107729;-65
2022/09/26 09:09:06;;;;;;;15.70;6.50;;;;;;;13.21;73.51;98090.55;106045;1274;97870;-64
2022/09/26 09:11:56;;;;;;;13.70;6.20;;;;;;;13.24;73.51;98088.10;106021;1274;97870;-64
2022/09/26 09:15:01;;;;;;;16.50;6.40;;;;;;;13.25;73.37;98084.81;105996;1274;111438;-64
2022/09/26 09:18:17;;;;;;;12.80;6.60;;;;;;;13.23;73.33;98080.05;105977;1274;95270;-64
2022/09/26 09:20:54;;;;;;;12.80;6.20;;;;;;;13.22;73.44;98076.38;105963;1275;106847;-64
2022/09/26 09:24:07;;;;;;;13.10;6.30;;;;;;;13.23;73.46;98073.84;105995;1274;95189;-63
2022/09/26 09:26:52;;;;;;;13.40;6.80;;;;;;;13.22;73.53;98070.00;105971;1274;97949;-64
2022/09/26 09:30:04;;;;;;;15.70;7.10;;;;;;;13.21;73.41;98068.83;106157;1274;112233;-64
2022/09/26 09:32:53;;;;;;;13.70;6.70;;;;;;;13.18;73.44;98067.70;106003;1274;95212;-64
2022/09/26 09:35:39;;;;;;;11.80;6.90;;;;;;;13.15;73.42;98068.86;105992;1274;107822;-63
2022/09/26 09:38:15;;;;;;;14.20;6.90;;;;;;;13.14;73.43;98070.80;106100;1274;97904;-64
2022/09/26 09:41:06;;;;;;;14.20;6.50;;;;;;;13.13;73.55;98066.98;106126;1274;97978;-64
2022/09/26 09:43:51;;;;;;;11.80;6.00;;;;;;;13.13;73.61;98066.83;106132;1274;112041;-63
2022/09/26 09:46:29;;;;;;;13.50;6.70;;;;;;;13.10;73.45;98065.48;106104;1274;95718;-64
2022/09/26 09:49:09;;;;;;;12.70;6.30;;;;;;;13.06;73.43;98069.46;106099;1274;108425;-62
2022/09/26 09:52:02;;;;;;;13.70;6.60;;;;;;;13.00;73.42;98072.03;106258;1273;97977;-64
2022/09/26 09:54:49;;;;;;;11.30;5.80;;;;;;;12.97;73.52;98070.47;106089;1273;97927;-64
2022/09/26 09:57:49;;;;;;;16.00;7.00;;;;;;;12.95;73.52;98069.41;105990;1276;111554;-64
2022/09/26 10:00:23;;;;;;;11.20;6.30;;;;;;;12.94;73.58;98067.79;105974;1276;97861;-64
2022/09/26 10:03:22;;;;;;;13.60;6.70;;;;;;;12.94;73.66;98070.43;105884;1276;107744;-64
2022/09/26 10:05:58;;;;;;;16.10;7.70;;;;;;;12.90;73.51;98076.83;105963;1276;97758;-65
2022/09/26 10:08:36;;;;;;;15.00;7.20;;;;;;;12.88;73.67;98073.81;105988;1276;99018;-63
2022/09/26 10:11:22;;;;;;;14.70;7.20;;;;;;;12.88;73.65;98076.02;105968;1276;111364;-63
2022/09/26 10:13:55;;;;;;;15.30;7.60;;;;;;;12.85;73.63;98078.25;105972;1276;97910;-63
2022/09/26 10:16:23;;;;;;;;;;;;;;;12.84;73.64;98079.23;105993;1276;107793;-66
2022/09/26 10:19:07;;;;;;;15.90;7.50;;;;;;;12.79;73.64;98077.02;105999;1276;95372;-65
2022/09/26 10:21:41;;;;;;;16.80;8.30;;;;;;;12.77;73.81;98078.46;106137;1274;97909;-65
2022/09/26 10:24:39;;;;;;;20.80;8.90;;;;;;;12.76;73.65;98080.39;106071;1276;111311;-65
2022/09/26 10:27:49;;;;;;;19.20;9.80;;;;;;;12.73;73.71;98077.48;106006;1279;98003;-64
2022/09/26 10:30:19;;;;;;;16.40;8.40;;;;;;;12.70;73.78;98071.91;106004;1279;107407;-64
2022/09/26 10:32:56;;;;;;;17.20;8.40;;;;;;;12.66;73.81;98069.73;105875;1279;97953;-64
2022/09/26 10:35:44;;;;;;;17.30;9.10;;;;;;;12.65;74.04;98063.24;105867;1278;97807;-65
2022/09/26 10:38:26;;;;;;;16.60;7.20;;;;;;;12.66;74.01;98060.13;105893;1278;111706;-63
2022/09/26 10:41:02;;;;;;;15.00;7.80;;;;;;;12.66;73.92;98064.77;105869;1279;97960;-65
2022/09/26 10:43:37;;;;;;;15.90;8.30;;;;;;;12.62;73.80;98070.85;105852;1279;107792;-64
2022/09/26 10:46:17;;;;;;;16.20;7.80;;;;;;;12.58;73.88;98070.33;105900;1278;97983;-65
2022/09/26 10:48:52;;;;;;;15.60;7.80;;;;;;;12.57;73.91;98069.01;105860;1276;98002;-64
2022/09/26 10:51:44;;;;;;;15.50;7.60;;;;;;;12.56;73.93;98064.66;105842;1279;111491;-64
2022/09/26 10:54:41;;;;;;;16.40;8.30;;;;;;;12.56;73.95;98066.32;105883;1279;97890;-61
2022/09/26 10:57:20;;;;;;;16.30;8.70;;;;;;;12.54;74.04;98061.50;105996;1276;107938;-65
2022/09/26 10:59:55;;;;;;;18.80;8.90;;;;;;;12.54;73.98;98056.73;105987;1276;95288;-69
2022/09/26 11:02:27;;;;;;;17.70;9.00;;;;;;;12.56;74.25;98050.67;105920;1276;97932;-65
2022/09/26 11:07:55;;;;;;;20.50;10.10;;;;;;;12.66;74.41;98046.45;106118;1276;96394;-65
2022/09/26 11:10:31;;;;;;;18.80;10.40;;;;;;;12.71;74.41;98035.84;106032;1276;107870;-65
2022/09/26 11:13:15;;;;;;;20.40;10.50;;;;;;;12.77;74.45;98029.93;106040;1276;95191;-65
2022/09/26 11:16:09;;;;;;;19.30;9.80;;;;;;;12.85;74.55;98031.23;106882;1276;97966;-64
2022/09/26 11:18:43;;;;;;;18.30;9.10;;;;;;;12.92;74.57;98036.24;106071;1276;111453;-64
2022/09/26 11:21:34;;;;;;;18.70;9.30;;;;;;;12.99;74.50;98042.42;106065;1276;95441;-66
2022/09/26 11:24:14;;;;;;;17.40;9.20;;;;;;;13.03;74.50;98042.33;106060;1276;108338;-65
2022/09/26 11:27:03;;;;;;;16.80;8.30;;;;;;;13.04;74.56;98036.04;106026;1276;98458;-66
2022/09/26 11:30:00;;;;;;;16.80;9.00;;;;;;;13.04;74.62;98039.14;106011;1276;97712;-65
2022/09/26 11:32:37;;;;;;;20.20;8.80;;;;;;;13.07;74.68;98040.32;105982;1276;112871;-68
2022/09/26 11:35:15;;;;;;;16.90;9.00;;;;;;;13.09;74.76;98039.71;106033;1276;97878;-66
2022/09/26 11:37:49;;;;;;;19.90;10.40;;;;;;;13.13;74.64;98037.61;106050;1276;107742;-65
2022/09/26 11:40:32;;;;;;;16.70;9.00;;;;;;;13.15;74.72;98034.05;106032;1275;95285;-66
2022/09/26 11:43:18;;;;;;;18.20;9.50;;;;;;;13.18;74.80;98029.67;106044;1276;98121;-66
2022/09/26 11:46:22;;;;;;;18.50;9.30;;;;;;;13.20;74.76;98029.73;106043;1276;112618;-66
2022/09/26 11:49:00;;;;;;;;;;;;;;;13.23;74.81;98032.83;106057;1276;97965;-65
2022/09/26 11:51:51;;;;;;;16.30;8.50;;;;;;;13.19;74.69;98030.27;106014;1276;108380;-64
2022/09/26 11:54:25;;;;;;;15.20;7.50;;;;;;;13.18;74.82;98028.73;106010;1276;96539;-64
2022/09/26 11:57:30;;;;;;;16.30;8.20;;;;;;;13.17;74.77;98030.06;105983;1276;97119;-64
2022/09/26 12:00:07;;;;;;;13.70;7.80;;;;;;;13.14;74.77;98028.23;105957;1277;111529;-66
2022/09/26 12:02:56;;;;;;;14.10;7.50;;;;;;;13.15;74.92;98023.00;105956;1279;96354;-64
2022/09/26 12:05:46;;;;;;;17.50;8.50;;;;;;;13.17;74.89;98022.77;105842;1276;107622;-64